sensor_id;sensor_type;location;lat;lon;timestamp;P1;durP1;ratioP1;P2;durP2;ratioP2
61473;SDS011;53694;49.784;30.150;2023-09-30T00:00:26;46.19;;;25.84;;
61473;SDS011;53694;49.784;30.150;2023-09-30T00:01:28;42.01;;;23.76;;
61473;SDS011;53694;49.784;30.150;2023-09-30T00:02:29;32.86;;;18.71;;
61473;SDS011;53694;49.784;30.150;2023-09-30T00:03:31;27.11;;;15.54;;
61473;SDS011;53694;49.784;30.150;2023-09-30T00:04:32;26.21;;;15.31;;
61473;SDS011;53694;49.784;30.150;2023-09-30T00:05:34;28.19;;;15.54;;
61473;SDS011;53694;49.784;30.150;2023-09-30T00:06:36;29.56;;;15.81;;
61473;SDS011;53694;49.784;30.150;2023-09-30T00:07:37;22.49;;;15.32;;
61473;SDS011;53694;49.784;30.150;2023-09-30T00:08:39;26.94;;;15.12;;
61473;SDS011;53694;49.784;30.150;2023-09-30T00:09:40;25.73;;;15.16;;
61473;SDS011;53694;49.784;30.150;2023-09-30T00:10:42;23.63;;;14.25;;
61473;SDS011;53694;49.784;30.150;2023-09-30T00:11:43;25.81;;;14.21;;
61473;SDS011;53694;49.784;30.150;2023-09-30T00:12:45;24.02;;;15.15;;
61473;SDS011;53694;49.784;30.150;2023-09-30T00:13:46;26.91;;;15.54;;
61473;SDS011;53694;49.784;30.150;2023-09-30T00:14:48;28.26;;;15.34;;
61473;SDS011;53694;49.784;30.150;2023-09-30T00:15:49;25.69;;;15.10;;
61473;SDS011;53694;49.784;30.150;2023-09-30T00:16:51;25.64;;;15.33;;
61473;SDS011;53694;49.784;30.150;2023-09-30T00:17:52;24.60;;;15.79;;
61473;SDS011;53694;49.784;30.150;2023-09-30T00:18:54;23.74;;;15.58;;
61473;SDS011;53694;49.784;30.150;2023-09-30T00:19:56;27.62;;;15.48;;
61473;SDS011;53694;49.784;30.150;2023-09-30T00:20:57;28.21;;;16.27;;
61473;SDS011;53694;49.784;30.150;2023-09-30T00:21:59;27.03;;;14.46;;
61473;SDS011;53694;49.784;30.150;2023-09-30T00:23:00;23.26;;;12.70;;
61473;SDS011;53694;49.784;30.150;2023-09-30T00:24:02;24.23;;;11.77;;
61473;SDS011;53694;49.784;30.150;2023-09-30T00:25:04;20.06;;;11.46;;
61473;SDS011;53694;49.784;30.150;2023-09-30T00:26:06;22.41;;;12.33;;
61473;SDS011;53694;49.784;30.150;2023-09-30T00:27:08;20.62;;;12.07;;
61473;SDS011;53694;49.784;30.150;2023-09-30T00:28:09;20.95;;;11.90;;
61473;SDS011;53694;49.784;30.150;2023-09-30T00:29:11;22.82;;;11.81;;
61473;SDS011;53694;49.784;30.150;2023-09-30T00:30:12;19.74;;;11.87;;
61473;SDS011;53694;49.784;30.150;2023-09-30T00:31:14;23.38;;;11.82;;
61473;SDS011;53694;49.784;30.150;2023-09-30T00:32:16;20.72;;;13.21;;
61473;SDS011;53694;49.784;30.150;2023-09-30T00:33:17;20.69;;;12.18;;
61473;SDS011;53694;49.784;30.150;2023-09-30T00:34:19;28.01;;;13.64;;
61473;SDS011;53694;49.784;30.150;2023-09-30T00:35:20;22.09;;;14.01;;
61473;SDS011;53694;49.784;30.150;2023-09-30T00:36:22;23.99;;;14.43;;
61473;SDS011;53694;49.784;30.150;2023-09-30T00:37:23;20.91;;;13.76;;
61473;SDS011;53694;49.784;30.150;2023-09-30T00:38:25;24.70;;;14.95;;
61473;SDS011;53694;49.784;30.150;2023-09-30T00:39:26;25.64;;;15.19;;
61473;SDS011;53694;49.784;30.150;2023-09-30T00:40:28;26.08;;;14.34;;
61473;SDS011;53694;49.784;30.150;2023-09-30T00:41:29;22.23;;;13.48;;
61473;SDS011;53694;49.784;30.150;2023-09-30T00:42:31;19.65;;;11.47;;
61473;SDS011;53694;49.784;30.150;2023-09-30T00:43:33;19.00;;;11.09;;
61473;SDS011;53694;49.784;30.150;2023-09-30T00:44:35;18.97;;;11.95;;
61473;SDS011;53694;49.784;30.150;2023-09-30T00:45:36;21.06;;;11.29;;
61473;SDS011;53694;49.784;30.150;2023-09-30T00:46:39;18.42;;;11.64;;
61473;SDS011;53694;49.784;30.150;2023-09-30T00:47:41;19.36;;;10.53;;
61473;SDS011;53694;49.784;30.150;2023-09-30T00:48:43;18.29;;;11.36;;
61473;SDS011;53694;49.784;30.150;2023-09-30T00:49:46;20.33;;;12.25;;
61473;SDS011;53694;49.784;30.150;2023-09-30T00:50:48;21.57;;;12.64;;
61473;SDS011;53694;49.784;30.150;2023-09-30T00:51:49;21.92;;;13.31;;
61473;SDS011;53694;49.784;30.150;2023-09-30T00:52:51;24.81;;;14.09;;
61473;SDS011;53694;49.784;30.150;2023-09-30T00:53:53;23.52;;;13.74;;
61473;SDS011;53694;49.784;30.150;2023-09-30T00:54:57;22.59;;;13.35;;
61473;SDS011;53694;49.784;30.150;2023-09-30T00:55:59;20.47;;;13.53;;
61473;SDS011;53694;49.784;30.150;2023-09-30T00:57:01;23.85;;;14.18;;
61473;SDS011;53694;49.784;30.150;2023-09-30T00:58:03;25.58;;;14.83;;
61473;SDS011;53694;49.784;30.150;2023-09-30T00:59:05;25.55;;;14.42;;
61473;SDS011;53694;49.784;30.150;2023-09-30T01:00:08;28.85;;;15.57;;
61473;SDS011;53694;49.784;30.150;2023-09-30T01:01:12;24.65;;;15.32;;
61473;SDS011;53694;49.784;30.150;2023-09-30T01:02:13;26.99;;;15.40;;
61473;SDS011;53694;49.784;30.150;2023-09-30T01:03:15;23.81;;;13.84;;
61473;SDS011;53694;49.784;30.150;2023-09-30T01:04:17;23.49;;;14.15;;
61473;SDS011;53694;49.784;30.150;2023-09-30T01:05:19;22.53;;;13.41;;
61473;SDS011;53694;49.784;30.150;2023-09-30T01:06:21;23.09;;;12.47;;
61473;SDS011;53694;49.784;30.150;2023-09-30T01:07:23;22.13;;;12.19;;
61473;SDS011;53694;49.784;30.150;2023-09-30T01:08:24;20.43;;;11.64;;
61473;SDS011;53694;49.784;30.150;2023-09-30T01:09:27;24.33;;;13.74;;
61473;SDS011;53694;49.784;30.150;2023-09-30T01:10:29;26.08;;;11.62;;
61473;SDS011;53694;49.784;30.150;2023-09-30T01:11:30;20.94;;;11.04;;
61473;SDS011;53694;49.784;30.150;2023-09-30T01:12:32;21.81;;;11.51;;
61473;SDS011;53694;49.784;30.150;2023-09-30T01:13:33;25.39;;;13.84;;
61473;SDS011;53694;49.784;30.150;2023-09-30T01:14:36;21.25;;;13.54;;
61473;SDS011;53694;49.784;30.150;2023-09-30T01:15:37;24.49;;;14.30;;
61473;SDS011;53694;49.784;30.150;2023-09-30T01:16:39;22.90;;;14.19;;
61473;SDS011;53694;49.784;30.150;2023-09-30T01:17:40;25.44;;;14.44;;
61473;SDS011;53694;49.784;30.150;2023-09-30T01:18:42;28.54;;;15.99;;
61473;SDS011;53694;49.784;30.150;2023-09-30T01:19:43;23.95;;;14.79;;
61473;SDS011;53694;49.784;30.150;2023-09-30T01:20:45;27.72;;;16.25;;
61473;SDS011;53694;49.784;30.150;2023-09-30T01:21:48;29.37;;;15.96;;
61473;SDS011;53694;49.784;30.150;2023-09-30T01:22:49;26.89;;;15.84;;
61473;SDS011;53694;49.784;30.150;2023-09-30T01:23:51;27.49;;;15.15;;
61473;SDS011;53694;49.784;30.150;2023-09-30T01:24:52;27.05;;;14.11;;
61473;SDS011;53694;49.784;30.150;2023-09-30T01:25:54;26.46;;;14.84;;
61473;SDS011;53694;49.784;30.150;2023-09-30T01:26:56;21.62;;;14.18;;
61473;SDS011;53694;49.784;30.150;2023-09-30T01:27:58;23.34;;;13.99;;
61473;SDS011;53694;49.784;30.150;2023-09-30T01:28:59;22.59;;;14.08;;
61473;SDS011;53694;49.784;30.150;2023-09-30T01:30:01;26.09;;;15.24;;
61473;SDS011;53694;49.784;30.150;2023-09-30T01:31:02;21.70;;;13.95;;
61473;SDS011;53694;49.784;30.150;2023-09-30T01:32:04;22.91;;;13.53;;
61473;SDS011;53694;49.784;30.150;2023-09-30T01:33:06;21.60;;;12.17;;
61473;SDS011;53694;49.784;30.150;2023-09-30T01:34:08;18.90;;;11.81;;
61473;SDS011;53694;49.784;30.150;2023-09-30T01:35:09;22.72;;;12.13;;
61473;SDS011;53694;49.784;30.150;2023-09-30T01:36:11;20.73;;;12.37;;
61473;SDS011;53694;49.784;30.150;2023-09-30T01:37:12;21.91;;;12.58;;
61473;SDS011;53694;49.784;30.150;2023-09-30T01:38:14;21.29;;;13.31;;
61473;SDS011;53694;49.784;30.150;2023-09-30T01:39:16;21.28;;;12.69;;
61473;SDS011;53694;49.784;30.150;2023-09-30T01:40:17;22.44;;;12.89;;
61473;SDS011;53694;49.784;30.150;2023-09-30T01:41:19;21.42;;;12.84;;
61473;SDS011;53694;49.784;30.150;2023-09-30T01:42:21;21.76;;;12.73;;
61473;SDS011;53694;49.784;30.150;2023-09-30T01:43:22;21.65;;;13.18;;
61473;SDS011;53694;49.784;30.150;2023-09-30T01:44:24;24.66;;;14.34;;
61473;SDS011;53694;49.784;30.150;2023-09-30T01:45:25;19.68;;;12.99;;
61473;SDS011;53694;49.784;30.150;2023-09-30T01:46:27;21.91;;;14.17;;
61473;SDS011;53694;49.784;30.150;2023-09-30T01:47:29;21.15;;;13.66;;
61473;SDS011;53694;49.784;30.150;2023-09-30T01:48:30;24.50;;;14.14;;
61473;SDS011;53694;49.784;30.150;2023-09-30T01:49:32;21.06;;;13.84;;
61473;SDS011;53694;49.784;30.150;2023-09-30T01:50:33;24.69;;;13.77;;
61473;SDS011;53694;49.784;30.150;2023-09-30T01:51:34;22.19;;;14.71;;
61473;SDS011;53694;49.784;30.150;2023-09-30T01:52:36;22.12;;;14.16;;
61473;SDS011;53694;49.784;30.150;2023-09-30T01:53:37;22.42;;;12.80;;
61473;SDS011;53694;49.784;30.150;2023-09-30T01:54:39;18.93;;;11.56;;
61473;SDS011;53694;49.784;30.150;2023-09-30T01:55:40;18.41;;;11.44;;
61473;SDS011;53694;49.784;30.150;2023-09-30T01:56:42;21.24;;;11.79;;
61473;SDS011;53694;49.784;30.150;2023-09-30T01:57:43;23.01;;;11.55;;
61473;SDS011;53694;49.784;30.150;2023-09-30T01:58:45;21.64;;;12.19;;
61473;SDS011;53694;49.784;30.150;2023-09-30T01:59:46;18.95;;;11.41;;
61473;SDS011;53694;49.784;30.150;2023-09-30T02:00:48;18.97;;;11.67;;
61473;SDS011;53694;49.784;30.150;2023-09-30T02:01:49;20.48;;;12.18;;
61473;SDS011;53694;49.784;30.150;2023-09-30T02:02:51;21.92;;;12.69;;
61473;SDS011;53694;49.784;30.150;2023-09-30T02:03:52;21.98;;;12.56;;
61473;SDS011;53694;49.784;30.150;2023-09-30T02:04:54;19.98;;;12.95;;
61473;SDS011;53694;49.784;30.150;2023-09-30T02:05:56;21.54;;;13.30;;
61473;SDS011;53694;49.784;30.150;2023-09-30T02:06:58;25.47;;;13.15;;
61473;SDS011;53694;49.784;30.150;2023-09-30T02:08:00;21.21;;;13.40;;
61473;SDS011;53694;49.784;30.150;2023-09-30T02:09:01;22.80;;;13.45;;
61473;SDS011;53694;49.784;30.150;2023-09-30T02:10:03;24.56;;;13.79;;
61473;SDS011;53694;49.784;30.150;2023-09-30T02:11:05;24.66;;;14.31;;
61473;SDS011;53694;49.784;30.150;2023-09-30T02:12:06;22.59;;;14.52;;
61473;SDS011;53694;49.784;30.150;2023-09-30T02:13:08;21.81;;;14.73;;
61473;SDS011;53694;49.784;30.150;2023-09-30T02:14:09;18.29;;;12.44;;
61473;SDS011;53694;49.784;30.150;2023-09-30T02:15:11;22.25;;;12.71;;
61473;SDS011;53694;49.784;30.150;2023-09-30T02:16:14;20.57;;;11.16;;
61473;SDS011;53694;49.784;30.150;2023-09-30T02:17:15;19.99;;;11.55;;
61473;SDS011;53694;49.784;30.150;2023-09-30T02:18:17;21.06;;;10.77;;
61473;SDS011;53694;49.784;30.150;2023-09-30T02:19:19;24.21;;;11.55;;
61473;SDS011;53694;49.784;30.150;2023-09-30T02:20:20;19.32;;;11.23;;
61473;SDS011;53694;49.784;30.150;2023-09-30T02:21:22;19.36;;;11.69;;
61473;SDS011;53694;49.784;30.150;2023-09-30T02:22:23;23.96;;;12.84;;
61473;SDS011;53694;49.784;30.150;2023-09-30T02:23:25;22.43;;;13.35;;
61473;SDS011;53694;49.784;30.150;2023-09-30T02:24:26;25.00;;;13.75;;
61473;SDS011;53694;49.784;30.150;2023-09-30T02:25:28;23.87;;;12.97;;
61473;SDS011;53694;49.784;30.150;2023-09-30T02:26:29;25.71;;;15.00;;
61473;SDS011;53694;49.784;30.150;2023-09-30T02:27:31;31.50;;;15.42;;
61473;SDS011;53694;49.784;30.150;2023-09-30T02:28:32;24.26;;;14.48;;
61473;SDS011;53694;49.784;30.150;2023-09-30T02:29:34;29.91;;;15.60;;
61473;SDS011;53694;49.784;30.150;2023-09-30T02:30:35;29.54;;;16.04;;
61473;SDS011;53694;49.784;30.150;2023-09-30T02:31:37;28.59;;;16.45;;
61473;SDS011;53694;49.784;30.150;2023-09-30T02:32:39;32.04;;;17.31;;
61473;SDS011;53694;49.784;30.150;2023-09-30T02:33:40;31.15;;;18.17;;
61473;SDS011;53694;49.784;30.150;2023-09-30T02:34:42;35.21;;;15.71;;
61473;SDS011;53694;49.784;30.150;2023-09-30T02:35:48;29.91;;;13.79;;
61473;SDS011;53694;49.784;30.150;2023-09-30T02:36:47;26.46;;;13.94;;
61473;SDS011;53694;49.784;30.150;2023-09-30T02:37:49;24.11;;;12.96;;
61473;SDS011;53694;49.784;30.150;2023-09-30T02:38:50;22.14;;;11.31;;
61473;SDS011;53694;49.784;30.150;2023-09-30T02:39:52;25.16;;;13.18;;
61473;SDS011;53694;49.784;30.150;2023-09-30T02:40:54;22.86;;;12.72;;
61473;SDS011;53694;49.784;30.150;2023-09-30T02:41:55;23.74;;;12.75;;
61473;SDS011;53694;49.784;30.150;2023-09-30T02:42:57;25.61;;;13.58;;
61473;SDS011;53694;49.784;30.150;2023-09-30T02:43:58;27.99;;;13.90;;
61473;SDS011;53694;49.784;30.150;2023-09-30T02:45:00;30.51;;;14.17;;
61473;SDS011;53694;49.784;30.150;2023-09-30T02:46:01;27.65;;;14.64;;
61473;SDS011;53694;49.784;30.150;2023-09-30T02:47:03;26.10;;;14.07;;
61473;SDS011;53694;49.784;30.150;2023-09-30T02:48:05;26.47;;;15.34;;
61473;SDS011;53694;49.784;30.150;2023-09-30T02:49:06;28.43;;;15.14;;
61473;SDS011;53694;49.784;30.150;2023-09-30T02:50:08;27.99;;;14.79;;
61473;SDS011;53694;49.784;30.150;2023-09-30T02:51:10;25.83;;;15.33;;
61473;SDS011;53694;49.784;30.150;2023-09-30T02:52:12;30.61;;;15.71;;
61473;SDS011;53694;49.784;30.150;2023-09-30T02:53:13;27.69;;;16.06;;
61473;SDS011;53694;49.784;30.150;2023-09-30T02:54:16;26.06;;;14.38;;
61473;SDS011;53694;49.784;30.150;2023-09-30T02:55:17;28.28;;;15.46;;
61473;SDS011;53694;49.784;30.150;2023-09-30T02:56:19;27.76;;;16.26;;
61473;SDS011;53694;49.784;30.150;2023-09-30T02:57:20;25.22;;;13.48;;
61473;SDS011;53694;49.784;30.150;2023-09-30T02:58:23;25.99;;;12.40;;
61473;SDS011;53694;49.784;30.150;2023-09-30T02:59:25;19.34;;;11.69;;
61473;SDS011;53694;49.784;30.150;2023-09-30T03:00:26;21.44;;;12.07;;
61473;SDS011;53694;49.784;30.150;2023-09-30T03:01:28;20.79;;;11.39;;
61473;SDS011;53694;49.784;30.150;2023-09-30T03:02:29;21.47;;;10.66;;
61473;SDS011;53694;49.784;30.150;2023-09-30T03:03:31;22.21;;;10.62;;
61473;SDS011;53694;49.784;30.150;2023-09-30T03:04:32;17.19;;;10.75;;
61473;SDS011;53694;49.784;30.150;2023-09-30T03:05:34;20.87;;;11.15;;
61473;SDS011;53694;49.784;30.150;2023-09-30T03:06:35;20.69;;;11.27;;
61473;SDS011;53694;49.784;30.150;2023-09-30T03:07:37;17.80;;;11.21;;
61473;SDS011;53694;49.784;30.150;2023-09-30T03:08:38;23.29;;;12.22;;
61473;SDS011;53694;49.784;30.150;2023-09-30T03:09:40;24.34;;;12.69;;
61473;SDS011;53694;49.784;30.150;2023-09-30T03:10:41;25.17;;;13.89;;
61473;SDS011;53694;49.784;30.150;2023-09-30T03:11:43;22.70;;;13.34;;
61473;SDS011;53694;49.784;30.150;2023-09-30T03:12:44;25.26;;;14.14;;
61473;SDS011;53694;49.784;30.150;2023-09-30T03:13:46;29.61;;;13.60;;
61473;SDS011;53694;49.784;30.150;2023-09-30T03:14:47;21.55;;;14.10;;
61473;SDS011;53694;49.784;30.150;2023-09-30T03:15:49;26.60;;;14.07;;
61473;SDS011;53694;49.784;30.150;2023-09-30T03:16:50;24.34;;;14.14;;
61473;SDS011;53694;49.784;30.150;2023-09-30T03:17:52;24.35;;;14.03;;
61473;SDS011;53694;49.784;30.150;2023-09-30T03:18:53;28.37;;;13.68;;
61473;SDS011;53694;49.784;30.150;2023-09-30T03:19:55;20.24;;;12.14;;
61473;SDS011;53694;49.784;30.150;2023-09-30T03:21:00;19.91;;;11.40;;
61473;SDS011;53694;49.784;30.150;2023-09-30T03:22:02;22.95;;;11.48;;
61473;SDS011;53694;49.784;30.150;2023-09-30T03:23:04;21.88;;;11.26;;
61473;SDS011;53694;49.784;30.150;2023-09-30T03:24:05;18.51;;;11.19;;
61473;SDS011;53694;49.784;30.150;2023-09-30T03:25:07;18.79;;;11.25;;
61473;SDS011;53694;49.784;30.150;2023-09-30T03:26:12;19.13;;;10.18;;
61473;SDS011;53694;49.784;30.150;2023-09-30T03:27:14;21.23;;;11.29;;
61473;SDS011;53694;49.784;30.150;2023-09-30T03:28:15;20.48;;;11.59;;
61473;SDS011;53694;49.784;30.150;2023-09-30T03:29:17;20.16;;;12.14;;
61473;SDS011;53694;49.784;30.150;2023-09-30T03:30:19;21.05;;;13.05;;
61473;SDS011;53694;49.784;30.150;2023-09-30T03:31:21;21.99;;;12.38;;
61473;SDS011;53694;49.784;30.150;2023-09-30T03:32:22;22.14;;;12.89;;
61473;SDS011;53694;49.784;30.150;2023-09-30T03:33:24;21.31;;;13.24;;
61473;SDS011;53694;49.784;30.150;2023-09-30T03:34:25;25.65;;;13.44;;
61473;SDS011;53694;49.784;30.150;2023-09-30T03:35:27;23.02;;;13.05;;
61473;SDS011;53694;49.784;30.150;2023-09-30T03:36:28;23.99;;;14.31;;
61473;SDS011;53694;49.784;30.150;2023-09-30T03:37:30;26.70;;;14.20;;
61473;SDS011;53694;49.784;30.150;2023-09-30T03:38:32;23.85;;;15.05;;
61473;SDS011;53694;49.784;30.150;2023-09-30T03:39:34;24.79;;;14.53;;
61473;SDS011;53694;49.784;30.150;2023-09-30T03:40:35;20.22;;;12.75;;
61473;SDS011;53694;49.784;30.150;2023-09-30T03:41:37;21.19;;;11.94;;
61473;SDS011;53694;49.784;30.150;2023-09-30T03:42:39;21.75;;;12.36;;
61473;SDS011;53694;49.784;30.150;2023-09-30T03:43:41;21.83;;;11.69;;
61473;SDS011;53694;49.784;30.150;2023-09-30T03:44:42;18.56;;;11.07;;
61473;SDS011;53694;49.784;30.150;2023-09-30T03:45:44;21.11;;;11.09;;
61473;SDS011;53694;49.784;30.150;2023-09-30T03:46:45;20.45;;;10.69;;
61473;SDS011;53694;49.784;30.150;2023-09-30T03:47:47;18.48;;;10.91;;
61473;SDS011;53694;49.784;30.150;2023-09-30T03:48:49;21.18;;;11.49;;
61473;SDS011;53694;49.784;30.150;2023-09-30T03:49:50;20.98;;;12.00;;
61473;SDS011;53694;49.784;30.150;2023-09-30T03:50:52;22.10;;;12.88;;
61473;SDS011;53694;49.784;30.150;2023-09-30T03:51:53;24.64;;;12.39;;
61473;SDS011;53694;49.784;30.150;2023-09-30T03:53:00;22.44;;;13.09;;
61473;SDS011;53694;49.784;30.150;2023-09-30T03:54:05;26.84;;;14.18;;
61473;SDS011;53694;49.784;30.150;2023-09-30T03:55:07;27.79;;;14.14;;
61473;SDS011;53694;49.784;30.150;2023-09-30T03:56:09;25.37;;;13.53;;
61473;SDS011;53694;49.784;30.150;2023-09-30T03:57:10;24.09;;;14.07;;
61473;SDS011;53694;49.784;30.150;2023-09-30T03:58:12;21.40;;;13.43;;
61473;SDS011;53694;49.784;30.150;2023-09-30T03:59:13;28.41;;;14.58;;
61473;SDS011;53694;49.784;30.150;2023-09-30T04:00:15;25.99;;;14.61;;
61473;SDS011;53694;49.784;30.150;2023-09-30T04:01:17;25.55;;;13.47;;
61473;SDS011;53694;49.784;30.150;2023-09-30T04:02:18;19.74;;;12.31;;
61473;SDS011;53694;49.784;30.150;2023-09-30T04:03:20;19.21;;;10.93;;
61473;SDS011;53694;49.784;30.150;2023-09-30T04:04:21;22.62;;;12.24;;
61473;SDS011;53694;49.784;30.150;2023-09-30T04:05:23;24.07;;;12.50;;
61473;SDS011;53694;49.784;30.150;2023-09-30T04:06:25;20.22;;;11.35;;
61473;SDS011;53694;49.784;30.150;2023-09-30T04:07:26;19.41;;;11.36;;
61473;SDS011;53694;49.784;30.150;2023-09-30T04:08:28;22.76;;;11.60;;
61473;SDS011;53694;49.784;30.150;2023-09-30T04:09:29;18.72;;;11.28;;
61473;SDS011;53694;49.784;30.150;2023-09-30T04:10:31;20.74;;;12.06;;
61473;SDS011;53694;49.784;30.150;2023-09-30T04:11:32;20.89;;;11.66;;
61473;SDS011;53694;49.784;30.150;2023-09-30T04:12:34;19.68;;;11.15;;
61473;SDS011;53694;49.784;30.150;2023-09-30T04:13:36;23.03;;;11.86;;
61473;SDS011;53694;49.784;30.150;2023-09-30T04:14:37;23.21;;;12.76;;
61473;SDS011;53694;49.784;30.150;2023-09-30T04:15:38;23.62;;;12.92;;
61473;SDS011;53694;49.784;30.150;2023-09-30T04:16:40;30.74;;;15.04;;
61473;SDS011;53694;49.784;30.150;2023-09-30T04:17:41;25.76;;;13.41;;
61473;SDS011;53694;49.784;30.150;2023-09-30T04:18:43;19.33;;;12.65;;
61473;SDS011;53694;49.784;30.150;2023-09-30T04:19:44;20.12;;;12.81;;
61473;SDS011;53694;49.784;30.150;2023-09-30T04:20:46;25.21;;;14.01;;
61473;SDS011;53694;49.784;30.150;2023-09-30T04:21:48;20.69;;;13.80;;
61473;SDS011;53694;49.784;30.150;2023-09-30T04:22:49;26.79;;;13.78;;
61473;SDS011;53694;49.784;30.150;2023-09-30T04:23:51;24.95;;;14.23;;
61473;SDS011;53694;49.784;30.150;2023-09-30T04:24:52;31.01;;;14.28;;
61473;SDS011;53694;49.784;30.150;2023-09-30T04:25:54;22.44;;;12.21;;
61473;SDS011;53694;49.784;30.150;2023-09-30T04:26:55;21.72;;;11.61;;
61473;SDS011;53694;49.784;30.150;2023-09-30T04:27:56;21.29;;;11.26;;
61473;SDS011;53694;49.784;30.150;2023-09-30T04:28:58;20.64;;;11.69;;
61473;SDS011;53694;49.784;30.150;2023-09-30T04:29:59;23.69;;;11.36;;
61473;SDS011;53694;49.784;30.150;2023-09-30T04:31:01;21.40;;;11.15;;
61473;SDS011;53694;49.784;30.150;2023-09-30T04:32:03;16.89;;;10.99;;
61473;SDS011;53694;49.784;30.150;2023-09-30T04:33:04;21.40;;;11.29;;
61473;SDS011;53694;49.784;30.150;2023-09-30T04:34:06;20.11;;;11.08;;
61473;SDS011;53694;49.784;30.150;2023-09-30T04:35:08;21.74;;;11.88;;
61473;SDS011;53694;49.784;30.150;2023-09-30T04:36:10;22.12;;;12.69;;
61473;SDS011;53694;49.784;30.150;2023-09-30T04:37:11;24.82;;;13.16;;
61473;SDS011;53694;49.784;30.150;2023-09-30T04:38:13;24.28;;;13.33;;
61473;SDS011;53694;49.784;30.150;2023-09-30T04:39:14;24.69;;;14.11;;
61473;SDS011;53694;49.784;30.150;2023-09-30T04:40:16;21.80;;;13.36;;
61473;SDS011;53694;49.784;30.150;2023-09-30T04:41:17;28.98;;;14.78;;
61473;SDS011;53694;49.784;30.150;2023-09-30T04:42:19;24.60;;;14.76;;
61473;SDS011;53694;49.784;30.150;2023-09-30T04:43:20;31.21;;;14.98;;
61473;SDS011;53694;49.784;30.150;2023-09-30T04:44:22;23.50;;;14.69;;
61473;SDS011;53694;49.784;30.150;2023-09-30T04:45:23;28.52;;;15.35;;
61473;SDS011;53694;49.784;30.150;2023-09-30T04:46:26;28.60;;;13.93;;
61473;SDS011;53694;49.784;30.150;2023-09-30T04:47:27;27.62;;;12.38;;
61473;SDS011;53694;49.784;30.150;2023-09-30T04:48:29;21.71;;;12.90;;
61473;SDS011;53694;49.784;30.150;2023-09-30T04:49:30;23.18;;;12.16;;
61473;SDS011;53694;49.784;30.150;2023-09-30T04:50:32;22.99;;;10.93;;
61473;SDS011;53694;49.784;30.150;2023-09-30T04:51:33;24.21;;;11.31;;
61473;SDS011;53694;49.784;30.150;2023-09-30T04:52:35;23.33;;;11.51;;
61473;SDS011;53694;49.784;30.150;2023-09-30T04:53:37;21.79;;;10.79;;
61473;SDS011;53694;49.784;30.150;2023-09-30T04:54:38;30.44;;;11.03;;
61473;SDS011;53694;49.784;30.150;2023-09-30T04:55:40;21.80;;;11.49;;
61473;SDS011;53694;49.784;30.150;2023-09-30T04:56:42;23.76;;;10.89;;
61473;SDS011;53694;49.784;30.150;2023-09-30T04:57:43;23.44;;;12.64;;
61473;SDS011;53694;49.784;30.150;2023-09-30T04:58:46;21.48;;;12.33;;
61473;SDS011;53694;49.784;30.150;2023-09-30T04:59:47;23.45;;;12.74;;
61473;SDS011;53694;49.784;30.150;2023-09-30T05:00:49;27.59;;;13.31;;
61473;SDS011;53694;49.784;30.150;2023-09-30T05:01:50;29.33;;;13.34;;
61473;SDS011;53694;49.784;30.150;2023-09-30T05:02:52;27.73;;;13.85;;
61473;SDS011;53694;49.784;30.150;2023-09-30T05:03:56;22.98;;;14.79;;
61473;SDS011;53694;49.784;30.150;2023-09-30T05:04:57;26.59;;;14.60;;
61473;SDS011;53694;49.784;30.150;2023-09-30T05:05:59;26.14;;;14.46;;
61473;SDS011;53694;49.784;30.150;2023-09-30T05:07:00;21.78;;;13.16;;
61473;SDS011;53694;49.784;30.150;2023-09-30T05:08:02;23.76;;;11.85;;
61473;SDS011;53694;49.784;30.150;2023-09-30T05:09:04;20.99;;;12.26;;
61473;SDS011;53694;49.784;30.150;2023-09-30T05:10:06;22.10;;;11.30;;
61473;SDS011;53694;49.784;30.150;2023-09-30T05:11:07;20.20;;;11.60;;
61473;SDS011;53694;49.784;30.150;2023-09-30T05:12:09;23.45;;;11.89;;
61473;SDS011;53694;49.784;30.150;2023-09-30T05:13:12;20.14;;;11.06;;
61473;SDS011;53694;49.784;30.150;2023-09-30T05:14:14;22.89;;;11.36;;
61473;SDS011;53694;49.784;30.150;2023-09-30T05:15:15;24.49;;;11.06;;
61473;SDS011;53694;49.784;30.150;2023-09-30T05:16:17;25.17;;;12.04;;
61473;SDS011;53694;49.784;30.150;2023-09-30T05:17:19;21.41;;;12.52;;
61473;SDS011;53694;49.784;30.150;2023-09-30T05:18:21;25.63;;;14.17;;
61473;SDS011;53694;49.784;30.150;2023-09-30T05:19:23;23.44;;;13.84;;
61473;SDS011;53694;49.784;30.150;2023-09-30T05:20:25;32.06;;;15.80;;
61473;SDS011;53694;49.784;30.150;2023-09-30T05:21:26;31.64;;;15.14;;
61473;SDS011;53694;49.784;30.150;2023-09-30T05:22:27;34.93;;;14.95;;
61473;SDS011;53694;49.784;30.150;2023-09-30T05:23:29;29.56;;;16.05;;
61473;SDS011;53694;49.784;30.150;2023-09-30T05:24:30;26.74;;;16.21;;
61473;SDS011;53694;49.784;30.150;2023-09-30T05:25:32;30.68;;;16.71;;
61473;SDS011;53694;49.784;30.150;2023-09-30T05:26:34;29.61;;;15.54;;
61473;SDS011;53694;49.784;30.150;2023-09-30T05:27:35;25.04;;;13.89;;
61473;SDS011;53694;49.784;30.150;2023-09-30T05:28:37;24.12;;;12.76;;
61473;SDS011;53694;49.784;30.150;2023-09-30T05:29:39;24.84;;;14.13;;
61473;SDS011;53694;49.784;30.150;2023-09-30T05:30:40;25.71;;;13.90;;
61473;SDS011;53694;49.784;30.150;2023-09-30T05:31:42;22.74;;;11.91;;
61473;SDS011;53694;49.784;30.150;2023-09-30T05:32:43;31.70;;;14.01;;
61473;SDS011;53694;49.784;30.150;2023-09-30T05:33:45;24.77;;;13.50;;
61473;SDS011;53694;49.784;30.150;2023-09-30T05:34:46;25.57;;;13.11;;
61473;SDS011;53694;49.784;30.150;2023-09-30T05:35:48;20.66;;;13.24;;
61473;SDS011;53694;49.784;30.150;2023-09-30T05:36:50;24.79;;;15.34;;
61473;SDS011;53694;49.784;30.150;2023-09-30T05:37:51;25.84;;;14.49;;
61473;SDS011;53694;49.784;30.150;2023-09-30T05:38:54;25.21;;;15.24;;
61473;SDS011;53694;49.784;30.150;2023-09-30T05:39:56;30.63;;;16.10;;
61473;SDS011;53694;49.784;30.150;2023-09-30T05:40:58;26.87;;;16.66;;
61473;SDS011;53694;49.784;30.150;2023-09-30T05:41:59;29.02;;;16.58;;
61473;SDS011;53694;49.784;30.150;2023-09-30T05:43:01;26.70;;;17.00;;
61473;SDS011;53694;49.784;30.150;2023-09-30T05:44:03;29.63;;;17.24;;
61473;SDS011;53694;49.784;30.150;2023-09-30T05:45:05;33.73;;;18.21;;
61473;SDS011;53694;49.784;30.150;2023-09-30T05:46:07;31.99;;;17.65;;
61473;SDS011;53694;49.784;30.150;2023-09-30T05:47:08;33.44;;;17.98;;
61473;SDS011;53694;49.784;30.150;2023-09-30T05:48:10;30.04;;;18.04;;
61473;SDS011;53694;49.784;30.150;2023-09-30T05:49:11;26.85;;;16.64;;
61473;SDS011;53694;49.784;30.150;2023-09-30T05:50:13;29.41;;;15.63;;
61473;SDS011;53694;49.784;30.150;2023-09-30T05:51:15;22.53;;;14.53;;
61473;SDS011;53694;49.784;30.150;2023-09-30T05:52:16;29.39;;;13.85;;
61473;SDS011;53694;49.784;30.150;2023-09-30T05:53:18;22.91;;;13.67;;
61473;SDS011;53694;49.784;30.150;2023-09-30T05:54:19;22.54;;;13.19;;
61473;SDS011;53694;49.784;30.150;2023-09-30T05:55:21;24.86;;;14.09;;